Washington, District of Columbia
Traffic Map
Current Weather Conditions
Washington, District of Columbia
Broken Clouds
Broken Clouds
29°
Feels Like: 34°
Wind Chill: 29° Ceiling: 6000
Heat Index: 34° Visibility: 10mi
Dew Point: 23° Wind: 9mph
Humidity: 69% Direction: 180° (S)
Pressure: 29.99in Gusts: 0mph
Raw Report DataKDCA 301452Z 18008KT 10SM FEW038 BKN060 BKN130 BKN250 29/23 A2999 RMK AO2 SLP156 T02940233 53003
Traffic Incident Summary
Active as of:
Severity:
Category:
InformationThere was an issue retrieving the traffic information for this location. Please try a different location or try again shortly.
Advertisements
Track Severe Weather on mobile